createdAt,value
2023-05-05T00:01:15.672Z,73.38
2023-05-05T00:03:42.685Z,73.32
2023-05-05T00:06:09.517Z,73.54
2023-05-05T00:08:36.234Z,72.98
2023-05-05T00:11:04.370Z,73.77
2023-05-05T00:13:31.447Z,73.24
2023-05-05T00:15:58.163Z,73.36
2023-05-05T00:18:24.852Z,73.65
2023-05-05T00:20:51.524Z,73.46
2023-05-05T00:23:19.632Z,73.87
2023-05-05T00:25:46.475Z,73.44
2023-05-05T00:28:14.251Z,73.03
2023-05-05T00:30:41.391Z,73.03
2023-05-05T00:33:08.451Z,73.28
2023-05-05T00:35:35.129Z,73.28
2023-05-05T00:38:02.865Z,73.29
2023-05-05T00:40:29.513Z,73.42
2023-05-05T00:42:56.297Z,73.78
2023-05-05T00:45:22.862Z,74.01
2023-05-05T00:47:54.658Z,73.98
2023-05-05T00:50:26.879Z,74.05
2023-05-05T00:53:05.774Z,74.36
2023-05-05T00:55:34.232Z,73.90
2023-05-05T00:58:02.667Z,73.82
2023-05-05T01:00:30.883Z,73.30
2023-05-05T01:02:57.663Z,73.74
2023-05-05T01:05:26.971Z,73.86
2023-05-05T01:08:05.872Z,73.78
2023-05-05T01:10:49.127Z,74.16
2023-05-05T01:13:47.191Z,74.37
2023-05-05T01:16:19.599Z,74.62
2023-05-05T01:19:04.356Z,74.65
2023-05-05T01:21:38.737Z,74.15
2023-05-05T01:24:35.526Z,74.32
2023-05-05T01:27:27.307Z,74.47
2023-05-05T01:30:35.097Z,74.81
2023-05-05T01:33:07.749Z,75.53
2023-05-05T01:35:55.936Z,75.09
2023-05-05T01:38:26.711Z,75.29
2023-05-05T01:41:21.623Z,75.09
2023-05-05T01:43:50.588Z,74.94
2023-05-05T01:46:19.126Z,75.35
2023-05-05T01:48:48.236Z,75.56
2023-05-05T01:51:17.758Z,75.21
2023-05-05T01:53:47.049Z,75.64
2023-05-05T01:56:15.442Z,75.92
2023-05-05T01:58:44.991Z,75.93
2023-05-05T02:01:13.355Z,76.40
2023-05-05T02:03:41.607Z,76.78
2023-05-05T02:06:10.225Z,77.08
2023-05-05T02:08:39.218Z,77.31
2023-05-05T02:11:08.542Z,78.08
2023-05-05T02:13:36.579Z,78.34
2023-05-05T02:16:05.778Z,77.75
2023-05-05T02:18:35.762Z,78.11
2023-05-05T02:21:03.556Z,78.37
2023-05-05T02:23:30.660Z,78.50
2023-05-05T02:26:09.198Z,78.15
2023-05-05T02:28:42.698Z,78.63
2023-05-05T02:31:12.298Z,78.97
2023-05-05T02:33:41.634Z,78.92
2023-05-05T02:36:30.029Z,79.02
2023-05-05T02:39:02.007Z,78.89
2023-05-05T02:41:30.147Z,79.34
2023-05-05T02:43:58.281Z,79.25
2023-05-05T02:46:25.300Z,79.55
2023-05-05T02:48:51.928Z,79.56
2023-05-05T02:51:18.543Z,79.69
2023-05-05T02:53:45.147Z,79.68
2023-05-05T02:56:33.009Z,79.91
2023-05-05T02:59:27.460Z,80.02
2023-05-05T03:02:21.812Z,79.85
2023-05-05T03:05:10.987Z,79.96
2023-05-05T03:08:00.316Z,80.24
2023-05-05T03:10:30.438Z,80.04
2023-05-05T03:13:02.122Z,80.69
2023-05-05T03:15:32.295Z,80.74
2023-05-05T03:18:00.334Z,80.54
2023-05-05T03:20:27.564Z,80.35
2023-05-05T03:22:54.831Z,80.42
2023-05-05T03:25:21.487Z,80.32
2023-05-05T03:27:48.123Z,80.72
2023-05-05T03:30:15.162Z,80.96
2023-05-05T03:32:41.873Z,80.99
2023-05-05T03:35:08.855Z,80.92
2023-05-05T03:37:35.508Z,81.02
2023-05-05T03:40:02.083Z,81.11
2023-05-05T03:42:28.652Z,81.29
2023-05-05T03:44:57.082Z,81.23
2023-05-05T03:47:24.625Z,81.00
2023-05-05T03:49:51.157Z,80.43
2023-05-05T03:52:18.047Z,80.45
2023-05-05T03:54:46.046Z,80.39
2023-05-05T03:57:12.627Z,80.36
2023-05-05T03:59:39.228Z,80.43
2023-05-05T04:02:06.015Z,80.32
2023-05-05T04:04:32.870Z,79.93
2023-05-05T04:06:59.476Z,79.28
2023-05-05T04:09:26.156Z,80.03
2023-05-05T04:11:52.952Z,79.58
2023-05-05T04:14:19.583Z,79.47
2023-05-05T04:16:46.168Z,79.44
2023-05-05T04:19:13.110Z,79.31
2023-05-05T04:21:39.685Z,78.77
2023-05-05T04:24:06.738Z,79.12
2023-05-05T04:26:33.384Z,78.59
2023-05-05T04:29:00.200Z,79.02
2023-05-05T04:31:27.436Z,79.01
2023-05-05T04:33:54.100Z,78.72
2023-05-05T04:36:20.689Z,78.74
2023-05-05T04:38:47.285Z,77.98
2023-05-05T04:41:14.013Z,77.64
2023-05-05T04:43:41.251Z,77.05
2023-05-05T04:46:07.879Z,76.69
2023-05-05T04:48:34.518Z,76.70
2023-05-05T04:51:05.075Z,75.70
2023-05-05T04:53:32.020Z,74.72
2023-05-05T04:56:00.844Z,74.76
2023-05-05T04:58:28.321Z,73.82
2023-05-05T05:00:54.877Z,74.31
2023-05-05T05:03:21.636Z,73.55
2023-05-05T05:05:48.320Z,73.60
2023-05-05T05:08:17.994Z,72.89
2023-05-05T05:10:45.028Z,72.16
2023-05-05T05:13:12.874Z,71.48
2023-05-05T05:15:39.773Z,71.13
2023-05-05T05:18:06.664Z,71.45
2023-05-05T05:20:33.599Z,70.34
2023-05-05T05:23:04.268Z,69.20
2023-05-05T05:25:30.963Z,68.97
2023-05-05T05:28:08.884Z,68.58
2023-05-05T05:30:37.138Z,68.09
2023-05-05T05:33:03.937Z,68.68
2023-05-05T05:35:31.491Z,67.14
2023-05-05T05:37:58.155Z,66.78
2023-05-05T05:40:24.741Z,66.46
2023-05-05T05:42:51.259Z,66.36
2023-05-05T05:45:18.006Z,63.48
2023-05-05T05:47:44.626Z,60.10
2023-05-05T05:50:11.497Z,53.68
2023-05-05T05:52:38.055Z,52.53
2023-05-05T05:55:05.259Z,53.13
2023-05-05T05:57:31.924Z,52.84
2023-05-05T06:00:00.502Z,49.44
2023-05-05T06:02:28.614Z,48.53
2023-05-05T06:04:55.207Z,50.37
2023-05-05T06:07:21.949Z,48.00
2023-05-05T06:09:48.554Z,46.50
2023-05-05T06:12:15.236Z,45.42
2023-05-05T06:14:41.809Z,44.61
2023-05-05T06:17:08.514Z,43.22
2023-05-05T06:19:36.884Z,42.72
2023-05-05T06:22:03.437Z,40.39
2023-05-05T06:24:31.971Z,40.35
2023-05-05T06:27:00.168Z,42.85
2023-05-05T06:29:26.846Z,45.40
2023-05-05T06:31:53.447Z,46.97
2023-05-05T06:34:20.062Z,48.78
2023-05-05T06:36:46.766Z,46.24
2023-05-05T06:39:15.846Z,41.88
2023-05-05T06:41:42.676Z,40.66
2023-05-05T06:44:10.569Z,41.56
2023-05-05T06:46:37.393Z,42.69
2023-05-05T06:49:04.052Z,41.76
2023-05-05T06:51:31.961Z,41.33
2023-05-05T06:53:58.523Z,38.74
2023-05-05T06:56:25.123Z,38.92
2023-05-05T06:58:51.677Z,39.74
2023-05-05T07:01:19.463Z,38.34
2023-05-05T07:03:46.249Z,39.05
2023-05-05T07:06:13.095Z,37.77
2023-05-05T07:08:39.724Z,36.90
2023-05-05T07:11:07.025Z,36.53
2023-05-05T07:13:33.582Z,33.85
2023-05-05T07:16:00.326Z,35.37
2023-05-05T07:18:26.952Z,35.61
2023-05-05T07:20:53.518Z,35.03
2023-05-05T07:23:20.117Z,34.39
2023-05-05T07:25:46.715Z,36.03
2023-05-05T07:28:13.364Z,34.29
2023-05-05T07:30:39.958Z,33.57
2023-05-05T07:33:06.729Z,33.69
2023-05-05T07:35:33.397Z,34.25
2023-05-05T07:38:00.059Z,32.73
2023-05-05T07:40:26.861Z,32.79
2023-05-05T07:42:53.361Z,34.57
2023-05-05T07:45:19.929Z,34.29
2023-05-05T07:47:46.511Z,34.84
2023-05-05T07:50:13.181Z,34.13
2023-05-05T07:55:09.326Z,32.89
2023-05-05T07:57:35.920Z,32.22
2023-05-05T08:00:02.792Z,32.15
2023-05-05T08:02:29.431Z,32.69
2023-05-05T08:04:56.051Z,32.38
2023-05-05T08:07:22.760Z,31.24
2023-05-05T08:09:49.467Z,31.28
2023-05-05T08:12:18.996Z,32.12
2023-05-05T08:14:45.745Z,31.08
2023-05-05T08:17:12.303Z,32.76
2023-05-05T08:19:38.902Z,31.57
2023-05-05T08:22:05.615Z,30.83
2023-05-05T08:24:32.798Z,31.98
2023-05-05T08:26:59.353Z,32.07
2023-05-05T08:29:26.038Z,31.15
2023-05-05T08:31:52.937Z,31.61
2023-05-05T08:34:19.967Z,32.59
2023-05-05T08:36:48.984Z,33.61
2023-05-05T08:39:15.726Z,32.74
2023-05-05T08:41:42.354Z,33.29
2023-05-05T08:44:09.414Z,30.77
2023-05-05T08:46:36.719Z,28.19
2023-05-05T08:49:05.409Z,30.09
2023-05-05T08:51:41.094Z,29.43
2023-05-05T08:54:14.544Z,30.02
2023-05-05T08:56:44.894Z,30.47
2023-05-05T08:59:13.113Z,32.56
2023-05-05T09:01:41.818Z,34.54
2023-05-05T09:04:09.364Z,34.16
2023-05-05T09:06:37.067Z,33.45
2023-05-05T09:09:03.872Z,33.31
2023-05-05T09:11:32.058Z,32.95
2023-05-05T09:13:58.649Z,34.75
2023-05-05T09:16:25.364Z,32.41
2023-05-05T09:19:01.173Z,32.92
2023-05-05T09:21:28.080Z,31.32
2023-05-05T09:24:08.865Z,31.01
2023-05-05T09:26:38.600Z,30.45
2023-05-05T09:29:05.988Z,29.15
2023-05-05T09:31:34.928Z,28.46
2023-05-05T09:34:03.565Z,29.03
2023-05-05T09:36:47.976Z,28.22
2023-05-05T09:39:19.525Z,29.21
2023-05-05T09:41:46.962Z,28.87
2023-05-05T09:44:17.183Z,28.80
2023-05-05T09:46:51.517Z,29.26
2023-05-05T09:49:23.017Z,29.56
2023-05-05T09:51:49.652Z,27.76
2023-05-05T09:54:27.586Z,27.38
2023-05-05T09:56:56.459Z,29.08
2023-05-05T09:59:23.940Z,28.12
2023-05-05T10:01:51.695Z,28.56
2023-05-05T10:04:29.302Z,30.09
2023-05-05T10:06:57.784Z,32.54
2023-05-05T10:09:25.798Z,32.87
2023-05-05T10:11:53.393Z,31.89
2023-05-05T10:14:20.414Z,32.09
2023-05-05T10:16:49.514Z,31.31
2023-05-05T10:19:18.474Z,31.08
2023-05-05T10:21:53.171Z,31.05
2023-05-05T10:24:39.137Z,30.51
2023-05-05T10:27:34.714Z,28.75
2023-05-05T10:30:05.441Z,30.44
2023-05-05T10:32:59.904Z,32.02
2023-05-05T10:35:37.502Z,35.21
2023-05-05T10:38:08.229Z,31.99
2023-05-05T10:40:35.131Z,31.67
2023-05-05T10:43:02.253Z,30.79
2023-05-05T10:45:29.119Z,31.51
2023-05-05T10:47:59.647Z,29.04
2023-05-05T10:50:28.945Z,30.14
2023-05-05T10:53:10.369Z,30.57
2023-05-05T10:55:57.105Z,32.02
2023-05-05T10:58:55.370Z,30.90
2023-05-05T11:01:33.711Z,32.46
2023-05-05T11:04:35.852Z,29.12
2023-05-05T11:07:09.766Z,28.88
2023-05-05T11:09:55.172Z,28.11
2023-05-05T11:12:21.960Z,28.21
2023-05-05T11:15:23.735Z,29.45
2023-05-05T11:17:50.748Z,27.47
2023-05-05T11:20:17.543Z,27.30
2023-05-05T11:23:02.316Z,27.70
2023-05-05T11:25:39.021Z,27.56
2023-05-05T11:28:12.901Z,28.57
2023-05-05T11:30:54.792Z,31.40
2023-05-05T11:33:30.517Z,31.37
2023-05-05T11:36:06.752Z,29.64
2023-05-05T11:38:36.472Z,29.31
2023-05-05T11:41:12.931Z,29.73
2023-05-05T11:43:41.751Z,28.49
2023-05-05T11:46:15.146Z,29.48
2023-05-05T11:48:49.165Z,28.16
2023-05-05T11:51:16.974Z,29.69
2023-05-05T11:53:48.301Z,31.94
2023-05-05T11:56:19.026Z,31.12
2023-05-05T11:58:47.114Z,30.08
2023-05-05T12:01:14.591Z,32.37
2023-05-05T12:03:41.757Z,30.88
2023-05-05T12:06:08.639Z,30.77
2023-05-05T12:08:39.754Z,30.22
2023-05-05T12:11:11.034Z,28.76
2023-05-05T12:13:37.568Z,28.28
2023-05-05T12:16:11.838Z,27.56
2023-05-05T12:18:39.437Z,29.98
2023-05-05T12:21:19.560Z,28.39
2023-05-05T12:23:46.644Z,30.93
2023-05-05T12:26:32.053Z,30.82
2023-05-05T12:29:00.395Z,28.53
2023-05-05T12:31:41.121Z,28.07
2023-05-05T12:34:11.519Z,28.25
2023-05-05T12:36:38.822Z,28.91
2023-05-05T12:39:05.641Z,29.60
2023-05-05T12:41:33.097Z,30.03
2023-05-05T12:44:01.476Z,29.97
2023-05-05T12:46:31.977Z,29.82
2023-05-05T12:49:05.105Z,29.61
2023-05-05T12:51:33.565Z,29.41
2023-05-05T12:54:11.238Z,30.66
2023-05-05T12:56:42.948Z,30.41
2023-05-05T12:59:10.865Z,29.53
2023-05-05T13:02:02.563Z,28.91
2023-05-05T13:04:29.266Z,28.98
2023-05-05T13:07:13.462Z,30.95
2023-05-05T13:09:40.625Z,31.05
2023-05-05T13:12:08.545Z,30.05
2023-05-05T13:14:36.261Z,30.00
2023-05-05T13:17:02.877Z,30.57
2023-05-05T13:19:29.613Z,31.24
2023-05-05T13:21:57.446Z,33.04
2023-05-05T13:24:38.171Z,32.55
2023-05-05T13:27:09.372Z,33.76
2023-05-05T13:29:36.771Z,33.63
2023-05-05T13:32:03.784Z,34.99
2023-05-05T13:34:30.537Z,34.22
2023-05-05T13:36:57.108Z,34.65
2023-05-05T13:39:23.691Z,33.77
2023-05-05T13:41:50.389Z,34.57
2023-05-05T13:44:17.021Z,34.31
2023-05-05T13:46:43.677Z,34.98
2023-05-05T13:49:10.531Z,34.48
2023-05-05T13:51:38.354Z,35.14
2023-05-05T13:54:05.896Z,36.11
2023-05-05T13:56:33.337Z,34.68
2023-05-05T13:59:00.063Z,35.00
2023-05-05T14:01:26.972Z,36.00
2023-05-05T14:03:54.983Z,37.19
2023-05-05T14:06:23.585Z,35.79
2023-05-05T14:08:50.170Z,37.40
2023-05-05T14:11:18.086Z,36.74
2023-05-05T14:13:46.453Z,35.34
2023-05-05T14:16:13.318Z,35.47
2023-05-05T14:18:40.028Z,34.95
2023-05-05T14:21:06.710Z,35.54
2023-05-05T14:23:33.325Z,35.37
2023-05-05T14:26:00.124Z,36.86
2023-05-05T14:28:26.748Z,36.66
2023-05-05T14:30:53.477Z,36.05
2023-05-05T14:33:20.200Z,35.95
2023-05-05T14:35:46.859Z,37.11
2023-05-05T14:38:13.443Z,37.37
2023-05-05T14:40:40.900Z,37.65
2023-05-05T14:43:07.479Z,37.72
2023-05-05T14:45:34.113Z,38.50
2023-05-05T14:48:00.712Z,39.88
2023-05-05T14:50:27.379Z,38.52
2023-05-05T14:52:53.967Z,37.93
2023-05-05T14:55:21.249Z,38.22
2023-05-05T14:57:47.821Z,38.16
2023-05-05T15:00:14.878Z,38.35
2023-05-05T15:02:41.547Z,38.73
2023-05-05T15:05:08.773Z,39.97
2023-05-05T15:07:35.689Z,38.75
2023-05-05T15:10:02.265Z,39.30
2023-05-05T15:12:28.815Z,41.17
2023-05-05T15:14:55.484Z,39.26
2023-05-05T15:17:22.209Z,39.00
2023-05-05T15:19:49.042Z,39.77
2023-05-05T15:22:15.799Z,39.73
2023-05-05T15:24:42.398Z,38.80
2023-05-05T15:27:09.074Z,38.81
2023-05-05T15:29:35.635Z,39.34
2023-05-05T15:32:02.305Z,40.66
2023-05-05T15:34:28.967Z,39.59
2023-05-05T15:36:56.058Z,40.02
2023-05-05T15:39:22.725Z,40.54
2023-05-05T15:41:49.261Z,40.88
2023-05-05T15:44:15.932Z,41.49
2023-05-05T15:46:42.607Z,42.00
2023-05-05T15:49:09.307Z,42.07
2023-05-05T15:51:36.175Z,42.35
2023-05-05T15:54:02.767Z,41.49
2023-05-05T15:56:29.621Z,42.77
2023-05-05T15:58:56.844Z,43.01
2023-05-05T16:01:23.445Z,43.71
2023-05-05T16:03:50.298Z,42.85
2023-05-05T16:06:16.928Z,41.59
2023-05-05T16:08:43.591Z,41.78
2023-05-05T16:11:10.352Z,42.27
2023-05-05T16:13:38.873Z,42.50
2023-05-05T16:16:06.766Z,43.66
2023-05-05T16:18:33.506Z,43.33
2023-05-05T16:21:00.139Z,44.12
2023-05-05T16:23:26.681Z,44.43
2023-05-05T16:25:53.338Z,44.20
2023-05-05T16:28:20.140Z,45.11
2023-05-05T16:30:47.328Z,44.17
2023-05-05T16:33:14.140Z,45.48
2023-05-05T16:35:43.849Z,44.55
2023-05-05T16:38:10.456Z,44.85
2023-05-05T16:40:37.756Z,45.63
2023-05-05T16:43:04.580Z,45.27
2023-05-05T16:45:31.403Z,44.97
2023-05-05T16:47:57.997Z,46.41
2023-05-05T16:50:24.657Z,45.73
2023-05-05T16:52:51.328Z,45.81
2023-05-05T16:55:17.923Z,46.39
2023-05-05T16:57:44.608Z,45.41
2023-05-05T17:00:12.289Z,45.64
2023-05-05T17:02:38.930Z,46.38
2023-05-05T17:05:06.048Z,46.71
2023-05-05T17:07:34.149Z,46.91
2023-05-05T17:10:00.801Z,46.56
2023-05-05T17:12:27.467Z,46.41
2023-05-05T17:14:54.133Z,47.21
2023-05-05T17:17:20.923Z,46.98
2023-05-05T17:19:47.574Z,47.18
2023-05-05T17:22:14.195Z,47.04
2023-05-05T17:24:40.967Z,47.34
2023-05-05T17:27:07.643Z,47.48
2023-05-05T17:29:39.460Z,47.48
2023-05-05T17:32:06.805Z,48.19
2023-05-05T17:34:33.601Z,48.43
2023-05-05T17:37:00.772Z,48.10
2023-05-05T17:39:27.354Z,48.84
2023-05-05T17:41:53.902Z,48.45
2023-05-05T17:44:20.687Z,48.86
2023-05-05T17:46:47.435Z,48.90
2023-05-05T17:49:14.059Z,49.21
2023-05-05T17:51:40.733Z,48.94
2023-05-05T17:54:07.314Z,49.32
2023-05-05T17:56:34.771Z,49.78
2023-05-05T17:59:01.363Z,50.22
2023-05-05T18:01:28.020Z,50.21
2023-05-05T18:03:54.937Z,50.49
2023-05-05T18:06:21.772Z,50.29
2023-05-05T18:08:48.417Z,50.64
2023-05-05T18:11:15.320Z,50.88
2023-05-05T18:13:42.837Z,51.21
2023-05-05T18:16:09.746Z,50.90
2023-05-05T18:18:36.534Z,51.46
2023-05-05T18:21:03.221Z,52.33
2023-05-05T18:23:29.819Z,51.53
2023-05-05T18:25:56.380Z,51.25
2023-05-05T18:28:23.161Z,51.80
2023-05-05T18:30:49.787Z,52.11
2023-05-05T18:33:16.517Z,52.12
2023-05-05T18:35:43.156Z,52.13
2023-05-05T18:38:09.715Z,52.95
2023-05-05T18:40:36.377Z,52.94
2023-05-05T18:43:03.024Z,53.49
2023-05-05T18:45:29.902Z,54.06
2023-05-05T18:47:56.560Z,53.35
2023-05-05T18:50:23.205Z,54.53
2023-05-05T18:52:49.927Z,53.85
2023-05-05T18:55:16.723Z,54.10
2023-05-05T18:57:43.367Z,53.84
2023-05-05T19:00:10.640Z,54.89
2023-05-05T19:02:37.338Z,54.82
2023-05-05T19:05:04.277Z,54.01
2023-05-05T19:07:35.625Z,54.50
2023-05-05T19:10:04.525Z,54.90
2023-05-05T19:12:31.211Z,54.58
2023-05-05T19:14:57.830Z,55.33
2023-05-05T19:17:24.626Z,54.56
2023-05-05T19:19:51.552Z,54.93
2023-05-05T19:22:18.357Z,54.93
2023-05-05T19:24:44.955Z,55.18
2023-05-05T19:27:15.508Z,55.66
2023-05-05T19:29:42.969Z,55.75
2023-05-05T19:32:10.407Z,56.01
2023-05-05T19:34:37.221Z,55.81
2023-05-05T19:37:03.780Z,55.78
2023-05-05T19:39:30.360Z,56.86
2023-05-05T19:41:56.959Z,56.11
2023-05-05T19:44:23.807Z,56.17
2023-05-05T19:46:50.483Z,56.28
2023-05-05T19:49:16.989Z,56.56
2023-05-05T19:51:46.190Z,56.38
2023-05-05T19:54:13.208Z,56.56
2023-05-05T19:56:40.392Z,57.08
2023-05-05T19:59:06.928Z,57.57
2023-05-05T20:01:34.013Z,57.06
2023-05-05T20:04:01.108Z,56.82
2023-05-05T20:06:27.800Z,56.52
2023-05-05T20:08:55.407Z,56.85
2023-05-05T20:11:22.278Z,57.00
2023-05-05T20:13:50.012Z,57.47
2023-05-05T20:16:16.846Z,57.42
2023-05-05T20:18:43.793Z,57.24
2023-05-05T20:21:10.327Z,57.32
2023-05-05T20:23:37.087Z,57.09
2023-05-05T20:26:04.524Z,57.50
2023-05-05T20:28:31.675Z,57.07
2023-05-05T20:31:00.572Z,57.14
2023-05-05T20:33:28.368Z,57.66
2023-05-05T20:35:55.071Z,58.03
2023-05-05T20:38:21.628Z,58.02
2023-05-05T20:40:48.328Z,57.96
2023-05-05T20:43:14.971Z,58.44
2023-05-05T20:45:42.080Z,58.20
2023-05-05T20:48:11.142Z,58.02
2023-05-05T20:50:38.876Z,58.10
2023-05-05T20:53:07.870Z,58.37
2023-05-05T20:55:34.475Z,58.18
2023-05-05T20:58:01.282Z,58.32
2023-05-05T21:00:27.897Z,58.14
2023-05-05T21:02:55.038Z,58.35
2023-05-05T21:05:22.545Z,58.45
2023-05-05T21:07:49.229Z,58.53
2023-05-05T21:10:15.875Z,59.11
2023-05-05T21:12:42.597Z,58.75
2023-05-05T21:15:10.021Z,58.95
2023-05-05T21:17:36.953Z,59.26
2023-05-05T21:20:03.831Z,59.40
2023-05-05T21:22:30.641Z,58.97
2023-05-05T21:25:15.304Z,59.25
2023-05-05T21:27:41.997Z,59.56
2023-05-05T21:30:10.965Z,59.16
2023-05-05T21:32:38.856Z,59.22
2023-05-05T21:35:07.317Z,59.19
2023-05-05T21:37:34.313Z,59.15
2023-05-05T21:40:01.093Z,59.41
2023-05-05T21:42:30.419Z,59.32
2023-05-05T21:44:57.001Z,59.60
2023-05-05T21:47:23.720Z,60.24
2023-05-05T21:49:50.501Z,59.94
2023-05-05T21:52:17.217Z,60.08
2023-05-05T21:54:44.011Z,59.88
2023-05-05T21:57:10.742Z,59.56
2023-05-05T21:59:37.581Z,59.74
2023-05-05T22:02:04.255Z,59.43
2023-05-05T22:04:30.948Z,59.77
2023-05-05T22:06:57.845Z,59.83
2023-05-05T22:09:24.388Z,59.91
2023-05-05T22:11:51.677Z,60.57
2023-05-05T22:14:18.329Z,60.77
2023-05-05T22:16:45.288Z,63.59
2023-05-05T22:19:12.065Z,62.87
2023-05-05T22:21:38.758Z,62.99
2023-05-05T22:24:07.049Z,64.34
2023-05-05T22:26:33.720Z,63.32
2023-05-05T22:29:00.740Z,65.69
2023-05-05T22:31:27.430Z,65.37
2023-05-05T22:33:53.987Z,66.51
2023-05-05T22:36:20.563Z,67.13
2023-05-05T22:38:47.171Z,71.22
2023-05-05T22:41:13.786Z,70.15
2023-05-05T22:43:40.430Z,71.83
2023-05-05T22:46:07.200Z,75.39
2023-05-05T22:48:33.780Z,75.32
2023-05-05T22:51:00.322Z,76.52
2023-05-05T22:53:26.959Z,77.95
2023-05-05T22:55:53.740Z,77.00
2023-05-05T22:58:20.966Z,78.44
2023-05-05T23:00:47.569Z,79.78
2023-05-05T23:03:14.413Z,80.44
2023-05-05T23:05:41.144Z,80.48
2023-05-05T23:08:07.808Z,80.41
2023-05-05T23:10:34.436Z,79.04
2023-05-05T23:13:01.089Z,81.17
2023-05-05T23:15:28.588Z,79.71
2023-05-05T23:17:55.586Z,80.45
2023-05-05T23:20:22.300Z,80.75
2023-05-05T23:22:48.885Z,80.66
2023-05-05T23:25:15.563Z,81.70
2023-05-05T23:27:42.212Z,81.49
2023-05-05T23:30:09.381Z,84.41
2023-05-05T23:32:36.110Z,84.14
2023-05-05T23:35:02.937Z,83.94
2023-05-05T23:37:29.531Z,84.87
2023-05-05T23:39:56.732Z,85.97
2023-05-05T23:42:24.128Z,85.30
2023-05-05T23:44:50.830Z,85.61
2023-05-05T23:47:17.424Z,86.34
2023-05-05T23:49:44.100Z,86.52
2023-05-05T23:52:11.351Z,87.11
2023-05-05T23:54:37.932Z,87.49
2023-05-05T23:57:04.631Z,87.62
2023-05-05T23:59:31.190Z,86.71
